SXS768 EDDN-EKCH
Flight info
| Callsign | SXS768 |
|---|---|
| Flight time | 1h 7m |
| Altitude | 30000 |
| Route | ERETO1G/28 ERETO DCT LONLI M726 NARUS/N0429F320 M726 ROSOK Q296 MONAK |
| Aircraft | B738/M-SDE2E3FGHIRWXY/LB1 |
Departure
| Time | 2026-05-04 18:18 |
|---|---|
| Airport | Nuremberg Airport (EDDN) |
Arrival
| Time | 2026-05-04 19:25 |
|---|---|
| Airport | Copenhagen Kastrup Airport (EKCH) |
| Time | Latitude | Longitude | Altitude | Speed | Heading |
|---|---|---|---|---|---|
| 2026-05-04 17:43 | 49.49544 | 11.07516 | 1025 ft | 0 kts | 188° |
| 2026-05-04 18:04 | 49.49573 | 11.07521 | 1024 ft | 3 kts | 178° |
| 2026-05-04 18:05 | 49.49593 | 11.07517 | 1022 ft | 3 kts | 161° |
| 2026-05-04 18:05 | 49.49609 | 11.07504 | 1021 ft | 3 kts | 126° |
| 2026-05-04 18:05 | 49.49614 | 11.07489 | 1022 ft | 1 kts | 98° |
| 2026-05-04 18:08 | 49.49610 | 11.07528 | 1021 ft | 10 kts | 98° |
| 2026-05-04 18:08 | 49.49598 | 11.07635 | 1023 ft | 10 kts | 99° |
| 2026-05-04 18:08 | 49.49587 | 11.07760 | 1023 ft | 14 kts | 98° |
| 2026-05-04 18:08 | 49.49570 | 11.07941 | 1026 ft | 20 kts | 98° |
| 2026-05-04 18:09 | 49.49557 | 11.08345 | 1029 ft | 14 kts | 24° |
| 2026-05-04 18:09 | 49.49609 | 11.08539 | 1034 ft | 11 kts | 95° |
| 2026-05-04 18:10 | 49.49596 | 11.08667 | 1035 ft | 15 kts | 99° |
| 2026-05-04 18:10 | 49.49581 | 11.08821 | 1037 ft | 14 kts | 97° |
| 2026-05-04 18:10 | 49.49566 | 11.08968 | 1038 ft | 14 kts | 99° |
| 2026-05-04 18:10 | 49.49551 | 11.09106 | 1040 ft | 13 kts | 100° |
| 2026-05-04 18:11 | 49.49539 | 11.09204 | 1042 ft | 7 kts | 98° |
| 2026-05-04 18:11 | 49.49533 | 11.09263 | 1043 ft | 4 kts | 99° |
| 2026-05-04 18:11 | 49.49532 | 11.09279 | 1043 ft | 0 kts | 98° |
| 2026-05-04 18:14 | 49.49531 | 11.09289 | 1043 ft | 5 kts | 98° |
| 2026-05-04 18:14 | 49.49530 | 11.09344 | 1044 ft | 5 kts | 72° |
| 2026-05-04 18:14 | 49.49547 | 11.09393 | 1046 ft | 5 kts | 56° |
| 2026-05-04 18:15 | 49.49581 | 11.09467 | 1048 ft | 2 kts | 52° |
| 2026-05-04 18:15 | 49.49587 | 11.09477 | 1048 ft | 1 kts | 51° |
| 2026-05-04 18:15 | 49.49593 | 11.09490 | 1048 ft | 5 kts | 52° |
| 2026-05-04 18:16 | 49.49636 | 11.09564 | 1051 ft | 12 kts | 34° |
| 2026-05-04 18:16 | 49.49699 | 11.09523 | 1051 ft | 12 kts | 278° |
| 2026-05-04 18:16 | 49.49701 | 11.09477 | 1050 ft | 0 kts | 276° |
| 2026-05-04 18:17 | 49.49702 | 11.09475 | 1050 ft | 2 kts | 276° |
| 2026-05-04 18:17 | 49.49741 | 11.09069 | 1043 ft | 80 kts | 279° |
| 2026-05-04 18:17 | 49.50058 | 11.05979 | 1300 ft | 192 kts | 280° |
| 2026-05-04 18:18 | 49.50233 | 11.03858 | 1771 ft | 211 kts | 277° |
| 2026-05-04 18:18 | 49.50312 | 11.02364 | 1844 ft | 201 kts | 277° |
| 2026-05-04 18:18 | 49.50497 | 11.00226 | 2484 ft | 206 kts | 281° |
| 2026-05-04 18:18 | 49.50734 | 10.98033 | 3065 ft | 210 kts | 280° |
| 2026-05-04 18:19 | 49.51906 | 10.94025 | 4164 ft | 211 kts | 323° |
| 2026-05-04 18:19 | 49.53220 | 10.92980 | 4665 ft | 215 kts | 340° |
| 2026-05-04 18:19 | 49.54691 | 10.92490 | 5146 ft | 219 kts | 358° |
| 2026-05-04 18:20 | 49.56241 | 10.92489 | 5619 ft | 226 kts | 2° |
| 2026-05-04 18:20 | 49.57839 | 10.92557 | 6086 ft | 233 kts | 1° |
| 2026-05-04 18:20 | 49.59471 | 10.92621 | 6531 ft | 242 kts | 1° |
| 2026-05-04 18:20 | 49.61203 | 10.92680 | 6962 ft | 250 kts | 0° |
| 2026-05-04 18:21 | 49.62959 | 10.92737 | 7352 ft | 262 kts | 0° |
| 2026-05-04 18:21 | 49.64830 | 10.92788 | 7790 ft | 275 kts | 360° |
| 2026-05-04 18:21 | 49.66782 | 10.92943 | 8246 ft | 287 kts | 6° |
| 2026-05-04 18:21 | 49.68803 | 10.93391 | 8746 ft | 298 kts | 8° |
| 2026-05-04 18:22 | 49.70861 | 10.93933 | 9270 ft | 302 kts | 9° |
| 2026-05-04 18:22 | 49.72932 | 10.94491 | 9790 ft | 303 kts | 8° |
| 2026-05-04 18:22 | 49.75020 | 10.95046 | 10380 ft | 307 kts | 8° |
| 2026-05-04 18:22 | 49.77147 | 10.95601 | 10971 ft | 312 kts | 8° |
| 2026-05-04 18:23 | 49.79316 | 10.96156 | 11579 ft | 317 kts | 8° |
| 2026-05-04 18:23 | 49.81505 | 10.96710 | 12188 ft | 323 kts | 7° |
| 2026-05-04 18:23 | 49.83753 | 10.97274 | 12711 ft | 331 kts | 7° |
| 2026-05-04 18:23 | 49.86053 | 10.97848 | 13256 ft | 339 kts | 7° |
| 2026-05-04 18:24 | 49.88409 | 10.98434 | 13796 ft | 346 kts | 7° |
| 2026-05-04 18:24 | 49.90812 | 10.99032 | 14283 ft | 353 kts | 7° |
| 2026-05-04 18:24 | 49.93263 | 10.99641 | 14773 ft | 360 kts | 7° |
| 2026-05-04 18:24 | 49.95759 | 11.00261 | 15269 ft | 366 kts | 7° |
| 2026-05-04 18:25 | 49.98298 | 11.00893 | 15769 ft | 372 kts | 7° |
| 2026-05-04 18:25 | 50.00875 | 11.01536 | 16281 ft | 377 kts | 7° |
| 2026-05-04 18:25 | 50.03484 | 11.02187 | 16809 ft | 383 kts | 7° |
| 2026-05-04 18:25 | 50.06129 | 11.02846 | 17324 ft | 388 kts | 7° |
| 2026-05-04 18:26 | 50.08809 | 11.03516 | 17864 ft | 392 kts | 7° |
| 2026-05-04 18:26 | 50.11515 | 11.04193 | 18376 ft | 396 kts | 7° |
| 2026-05-04 18:26 | 50.14212 | 11.04868 | 18848 ft | 399 kts | 7° |
| 2026-05-04 18:26 | 50.16965 | 11.05559 | 19325 ft | 402 kts | 7° |
| 2026-05-04 18:27 | 50.19736 | 11.06255 | 19810 ft | 405 kts | 7° |
| 2026-05-04 18:27 | 50.22530 | 11.06958 | 20308 ft | 407 kts | 7° |
| 2026-05-04 18:27 | 50.25331 | 11.07663 | 20800 ft | 409 kts | 7° |
| 2026-05-04 18:27 | 50.28153 | 11.08374 | 21313 ft | 411 kts | 7° |
| 2026-05-04 18:28 | 50.30983 | 11.09087 | 21823 ft | 412 kts | 7° |
| 2026-05-04 18:28 | 50.33816 | 11.09795 | 22343 ft | 413 kts | 6° |
| 2026-05-04 18:28 | 50.36668 | 11.10479 | 22877 ft | 414 kts | 6° |
| 2026-05-04 18:28 | 50.39523 | 11.11152 | 23416 ft | 414 kts | 6° |
| 2026-05-04 18:29 | 50.42370 | 11.11821 | 23896 ft | 414 kts | 6° |
| 2026-05-04 18:29 | 50.45220 | 11.12493 | 24358 ft | 414 kts | 6° |
| 2026-05-04 18:29 | 50.48075 | 11.13170 | 24834 ft | 414 kts | 5° |
| 2026-05-04 18:29 | 50.50925 | 11.13848 | 25309 ft | 413 kts | 5° |
| 2026-05-04 18:30 | 50.56551 | 11.15194 | 26275 ft | 410 kts | 5° |
| 2026-05-04 18:30 | 50.59368 | 11.15869 | 26699 ft | 411 kts | 5° |
| 2026-05-04 18:30 | 50.62200 | 11.16548 | 27054 ft | 413 kts | 5° |
| 2026-05-04 18:31 | 50.65052 | 11.17233 | 27422 ft | 415 kts | 5° |
| 2026-05-04 18:31 | 50.67906 | 11.17920 | 27771 ft | 417 kts | 5° |
| 2026-05-04 18:31 | 50.70786 | 11.18613 | 28087 ft | 419 kts | 5° |
| 2026-05-04 18:31 | 50.73673 | 11.19309 | 28423 ft | 421 kts | 5° |
| 2026-05-04 18:32 | 50.76579 | 11.20011 | 28751 ft | 423 kts | 5° |
| 2026-05-04 18:32 | 50.79490 | 11.20716 | 29090 ft | 424 kts | 4° |
| 2026-05-04 18:32 | 50.82415 | 11.21425 | 29432 ft | 426 kts | 4° |
| 2026-05-04 18:32 | 50.85347 | 11.22137 | 29769 ft | 427 kts | 4° |
| 2026-05-04 18:33 | 50.88297 | 11.22854 | 30017 ft | 430 kts | 4° |
| 2026-05-04 18:33 | 50.94315 | 11.24314 | 30000 ft | 444 kts | 4° |
| 2026-05-04 18:34 | 51.00472 | 11.25813 | 30004 ft | 456 kts | 4° |
| 2026-05-04 18:34 | 51.06895 | 11.27384 | 29998 ft | 468 kts | 5° |
| 2026-05-04 18:35 | 51.13335 | 11.28966 | 29994 ft | 477 kts | 5° |
| 2026-05-04 18:35 | 51.19967 | 11.30600 | 29984 ft | 483 kts | 5° |
| 2026-05-04 18:36 | 51.26572 | 11.32236 | 29958 ft | 483 kts | 5° |
| 2026-05-04 18:36 | 51.33073 | 11.34961 | 29992 ft | 488 kts | 21° |
| 2026-05-04 18:37 | 51.39195 | 11.39696 | 29975 ft | 489 kts | 24° |
| 2026-05-04 18:37 | 51.45268 | 11.44639 | 29959 ft | 489 kts | 24° |
| 2026-05-04 18:38 | 51.51330 | 11.49606 | 29962 ft | 489 kts | 24° |
| 2026-05-04 18:38 | 51.57408 | 11.54457 | 29938 ft | 484 kts | 18° |
| 2026-05-04 18:38 | 51.60632 | 11.55872 | 29960 ft | 478 kts | 4° |
| 2026-05-04 18:39 | 51.63933 | 11.56486 | 29968 ft | 479 kts | 2° |
| 2026-05-04 18:39 | 51.70572 | 11.57652 | 29955 ft | 485 kts | 2° |
| 2026-05-04 18:40 | 51.77283 | 11.58971 | 30313 ft | 477 kts | 3° |
| 2026-05-04 18:40 | 51.80527 | 11.59649 | 30611 ft | 475 kts | 4° |
| 2026-05-04 18:40 | 51.83838 | 11.60352 | 30932 ft | 472 kts | 3° |
| 2026-05-04 18:40 | 51.87040 | 11.61037 | 31246 ft | 469 kts | 3° |
| 2026-05-04 18:41 | 51.90304 | 11.61737 | 31579 ft | 466 kts | 3° |
| 2026-05-04 18:41 | 51.93465 | 11.62415 | 31897 ft | 463 kts | 3° |
| 2026-05-04 18:41 | 51.96671 | 11.63100 | 31933 ft | 467 kts | 3° |
| 2026-05-04 18:42 | 52.03170 | 11.64485 | 31955 ft | 476 kts | 3° |
| 2026-05-04 18:42 | 52.09795 | 11.65902 | 31958 ft | 482 kts | 3° |
| 2026-05-04 18:43 | 52.16457 | 11.67339 | 31961 ft | 483 kts | 3° |
| 2026-05-04 18:43 | 52.23121 | 11.68781 | 31952 ft | 483 kts | 3° |
| 2026-05-04 18:44 | 52.29778 | 11.70225 | 31946 ft | 482 kts | 3° |
| 2026-05-04 18:44 | 52.36424 | 11.71669 | 31947 ft | 481 kts | 3° |
| 2026-05-04 18:45 | 52.43044 | 11.73112 | 31953 ft | 480 kts | 3° |
| 2026-05-04 18:45 | 52.49657 | 11.74557 | 31946 ft | 478 kts | 2° |
| 2026-05-04 18:46 | 52.56248 | 11.76002 | 31951 ft | 477 kts | 2° |
| 2026-05-04 18:46 | 52.62836 | 11.77449 | 31956 ft | 476 kts | 2° |
| 2026-05-04 18:47 | 52.69400 | 11.78896 | 31956 ft | 476 kts | 2° |
| 2026-05-04 18:47 | 52.75960 | 11.80346 | 31954 ft | 475 kts | 2° |
| 2026-05-04 18:48 | 52.82483 | 11.81792 | 31957 ft | 475 kts | 2° |
| 2026-05-04 18:48 | 52.89042 | 11.83253 | 31957 ft | 476 kts | 2° |
| 2026-05-04 18:49 | 52.95603 | 11.84717 | 31957 ft | 476 kts | 2° |
| 2026-05-04 18:49 | 53.02176 | 11.86189 | 31958 ft | 477 kts | 2° |
| 2026-05-04 18:50 | 53.08756 | 11.87666 | 31961 ft | 477 kts | 2° |
| 2026-05-04 18:50 | 53.15353 | 11.89153 | 31955 ft | 478 kts | 2° |
| 2026-05-04 18:51 | 53.21949 | 11.90641 | 31960 ft | 478 kts | 2° |
| 2026-05-04 18:51 | 53.28544 | 11.92132 | 31965 ft | 479 kts | 2° |
| 2026-05-04 18:52 | 53.35155 | 11.93635 | 31960 ft | 479 kts | 1° |
| 2026-05-04 18:52 | 53.41715 | 11.95132 | 31964 ft | 479 kts | 1° |
| 2026-05-04 18:53 | 53.48314 | 11.96643 | 31967 ft | 479 kts | 1° |
| 2026-05-04 18:53 | 53.54914 | 11.98159 | 31966 ft | 478 kts | 1° |
| 2026-05-04 18:54 | 53.61507 | 11.99678 | 31967 ft | 477 kts | 1° |
| 2026-05-04 18:54 | 53.64810 | 12.00439 | 31625 ft | 479 kts | 1° |
| 2026-05-04 18:54 | 53.68113 | 12.01203 | 31250 ft | 478 kts | 1° |
| 2026-05-04 18:54 | 53.71408 | 12.01966 | 30887 ft | 480 kts | 1° |
| 2026-05-04 18:55 | 53.74728 | 12.02733 | 30522 ft | 483 kts | 1° |
| 2026-05-04 18:55 | 53.81416 | 12.04284 | 29768 ft | 487 kts | 1° |
| 2026-05-04 18:55 | 53.84737 | 12.05058 | 29360 ft | 488 kts | 1° |
| 2026-05-04 18:56 | 53.88102 | 12.05844 | 28948 ft | 489 kts | 1° |
| 2026-05-04 18:56 | 53.91473 | 12.06634 | 28539 ft | 489 kts | 2° |
| 2026-05-04 18:56 | 53.94846 | 12.07425 | 28140 ft | 489 kts | 2° |
| 2026-05-04 18:56 | 53.98210 | 12.08216 | 27742 ft | 488 kts | 2° |
| 2026-05-04 18:57 | 54.01573 | 12.09008 | 27352 ft | 487 kts | 2° |
| 2026-05-04 18:57 | 54.04927 | 12.09799 | 26964 ft | 486 kts | 2° |
| 2026-05-04 18:57 | 54.08269 | 12.10588 | 26566 ft | 485 kts | 2° |
| 2026-05-04 18:57 | 54.11623 | 12.11378 | 26062 ft | 486 kts | 2° |
| 2026-05-04 18:58 | 54.14979 | 12.12170 | 25575 ft | 487 kts | 2° |
| 2026-05-04 18:58 | 54.18339 | 12.12966 | 25091 ft | 486 kts | 2° |
| 2026-05-04 18:58 | 54.21664 | 12.13624 | 24577 ft | 471 kts | 352° |
| 2026-05-04 18:58 | 54.24784 | 12.12680 | 24114 ft | 446 kts | 334° |
| 2026-05-04 18:59 | 54.27479 | 12.10324 | 23675 ft | 430 kts | 320° |
| 2026-05-04 18:59 | 54.29867 | 12.07306 | 23166 ft | 426 kts | 316° |
| 2026-05-04 18:59 | 54.32169 | 12.04129 | 22617 ft | 421 kts | 315° |
| 2026-05-04 18:59 | 54.34402 | 12.00958 | 22078 ft | 413 kts | 315° |
| 2026-05-04 19:00 | 54.36583 | 11.97830 | 21550 ft | 406 kts | 315° |
| 2026-05-04 19:00 | 54.38734 | 11.94726 | 21028 ft | 402 kts | 315° |
| 2026-05-04 19:00 | 54.40864 | 11.91630 | 20529 ft | 400 kts | 315° |
| 2026-05-04 19:00 | 54.42979 | 11.88532 | 20025 ft | 398 kts | 315° |
| 2026-05-04 19:01 | 54.45078 | 11.85435 | 19537 ft | 397 kts | 315° |
| 2026-05-04 19:01 | 54.47167 | 11.82326 | 19058 ft | 397 kts | 315° |
| 2026-05-04 19:01 | 54.49297 | 11.79295 | 18565 ft | 400 kts | 323° |
| 2026-05-04 19:01 | 54.51870 | 11.77512 | 18109 ft | 411 kts | 346° |
| 2026-05-04 19:02 | 54.54740 | 11.77338 | 17656 ft | 418 kts | 2° |
| 2026-05-04 19:02 | 54.57607 | 11.78348 | 17182 ft | 422 kts | 14° |
| 2026-05-04 19:02 | 54.60263 | 11.80546 | 16702 ft | 427 kts | 31° |
| 2026-05-04 19:02 | 54.62654 | 11.83565 | 16264 ft | 424 kts | 34° |
| 2026-05-04 19:03 | 54.64969 | 11.86660 | 15812 ft | 418 kts | 35° |
| 2026-05-04 19:03 | 54.67237 | 11.89737 | 15399 ft | 411 kts | 35° |
| 2026-05-04 19:03 | 54.69473 | 11.92763 | 14999 ft | 405 kts | 35° |
| 2026-05-04 19:03 | 54.71686 | 11.95738 | 14602 ft | 399 kts | 34° |
| 2026-05-04 19:04 | 54.73869 | 11.98655 | 14216 ft | 394 kts | 34° |
| 2026-05-04 19:04 | 54.76029 | 12.01527 | 13839 ft | 389 kts | 34° |
| 2026-05-04 19:04 | 54.78140 | 12.04330 | 13417 ft | 385 kts | 34° |
| 2026-05-04 19:04 | 54.80259 | 12.07142 | 13000 ft | 381 kts | 34° |
| 2026-05-04 19:05 | 54.82358 | 12.09930 | 12574 ft | 378 kts | 34° |
| 2026-05-04 19:05 | 54.84436 | 12.12694 | 12162 ft | 374 kts | 34° |
| 2026-05-04 19:05 | 54.86493 | 12.15433 | 11768 ft | 370 kts | 34° |
| 2026-05-04 19:05 | 54.88524 | 12.18142 | 11393 ft | 367 kts | 34° |
| 2026-05-04 19:06 | 54.89858 | 12.19923 | 11144 ft | 364 kts | 34° |
| 2026-05-04 19:06 | 54.91858 | 12.22596 | 10779 ft | 360 kts | 34° |
| 2026-05-04 19:06 | 54.93833 | 12.25240 | 10413 ft | 357 kts | 34° |
| 2026-05-04 19:06 | 54.96426 | 12.28714 | 9934 ft | 353 kts | 34° |
| 2026-05-04 19:07 | 54.97740 | 12.30478 | 9670 ft | 351 kts | 34° |
| 2026-05-04 19:07 | 54.99658 | 12.33054 | 9259 ft | 345 kts | 34° |
| 2026-05-04 19:07 | 55.01515 | 12.35554 | 8965 ft | 335 kts | 34° |
| 2026-05-04 19:07 | 55.03311 | 12.37977 | 8948 ft | 318 kts | 34° |
| 2026-05-04 19:08 | 55.05014 | 12.40278 | 8939 ft | 302 kts | 34° |
| 2026-05-04 19:08 | 55.06665 | 12.42505 | 8956 ft | 301 kts | 34° |
| 2026-05-04 19:08 | 55.08322 | 12.44740 | 8954 ft | 300 kts | 34° |
| 2026-05-04 19:08 | 55.09967 | 12.46961 | 8958 ft | 298 kts | 34° |
| 2026-05-04 19:09 | 55.11600 | 12.49172 | 8959 ft | 297 kts | 34° |
| 2026-05-04 19:09 | 55.13231 | 12.51381 | 8957 ft | 296 kts | 34° |
| 2026-05-04 19:09 | 55.14860 | 12.53592 | 8958 ft | 296 kts | 34° |
| 2026-05-04 19:09 | 55.16486 | 12.55800 | 8963 ft | 296 kts | 34° |
| 2026-05-04 19:10 | 55.18111 | 12.58010 | 8963 ft | 296 kts | 34° |
| 2026-05-04 19:10 | 55.19196 | 12.59484 | 8799 ft | 301 kts | 34° |
| 2026-05-04 19:10 | 55.21408 | 12.62498 | 8273 ft | 297 kts | 34° |
| 2026-05-04 19:10 | 55.23020 | 12.64649 | 8008 ft | 285 kts | 29° |
| 2026-05-04 19:11 | 55.24785 | 12.65987 | 7743 ft | 271 kts | 12° |
| 2026-05-04 19:11 | 55.26577 | 12.66953 | 7494 ft | 269 kts | 13° |
| 2026-05-04 19:11 | 55.28376 | 12.67928 | 7188 ft | 274 kts | 13° |
| 2026-05-04 19:11 | 55.30224 | 12.68949 | 6894 ft | 282 kts | 14° |
| 2026-05-04 19:12 | 55.32117 | 12.70016 | 6587 ft | 286 kts | 14° |
| 2026-05-04 19:12 | 55.35837 | 12.72138 | 5913 ft | 278 kts | 14° |
| 2026-05-04 19:12 | 55.37657 | 12.73181 | 5559 ft | 272 kts | 14° |
| 2026-05-04 19:13 | 55.39450 | 12.74207 | 5243 ft | 270 kts | 14° |
| 2026-05-04 19:13 | 55.41234 | 12.75228 | 4918 ft | 269 kts | 14° |
| 2026-05-04 19:13 | 55.43008 | 12.76244 | 4591 ft | 267 kts | 15° |
| 2026-05-04 19:13 | 55.44773 | 12.77256 | 4252 ft | 266 kts | 15° |
| 2026-05-04 19:14 | 55.46531 | 12.78265 | 4035 ft | 267 kts | 15° |
| 2026-05-04 19:14 | 55.48318 | 12.79292 | 4018 ft | 271 kts | 15° |
| 2026-05-04 19:14 | 55.50104 | 12.80321 | 3993 ft | 268 kts | 15° |
| 2026-05-04 19:14 | 55.51861 | 12.81334 | 3976 ft | 264 kts | 15° |
| 2026-05-04 19:15 | 55.53609 | 12.82341 | 3990 ft | 264 kts | 15° |
| 2026-05-04 19:15 | 55.55362 | 12.83351 | 3996 ft | 266 kts | 15° |
| 2026-05-04 19:15 | 55.57104 | 12.84487 | 3995 ft | 268 kts | 19° |
| 2026-05-04 19:15 | 55.58801 | 12.85722 | 3989 ft | 265 kts | 19° |
| 2026-05-04 19:16 | 55.60455 | 12.86936 | 3961 ft | 248 kts | 19° |
| 2026-05-04 19:16 | 55.62002 | 12.88065 | 3983 ft | 235 kts | 19° |
| 2026-05-04 19:16 | 55.63418 | 12.89494 | 3984 ft | 236 kts | 37° |
| 2026-05-04 19:16 | 55.64640 | 12.91460 | 3999 ft | 238 kts | 39° |
| 2026-05-04 19:17 | 55.65867 | 12.93434 | 3990 ft | 236 kts | 39° |
| 2026-05-04 19:17 | 55.67052 | 12.95364 | 3964 ft | 225 kts | 40° |
| 2026-05-04 19:17 | 55.68135 | 12.97239 | 3966 ft | 211 kts | 41° |
| 2026-05-04 19:17 | 55.69251 | 12.98881 | 3993 ft | 208 kts | 25° |
| 2026-05-04 19:18 | 55.70507 | 13.00125 | 4005 ft | 206 kts | 25° |
| 2026-05-04 19:18 | 55.71749 | 13.01365 | 3988 ft | 205 kts | 25° |
| 2026-05-04 19:18 | 55.72998 | 13.02609 | 3728 ft | 211 kts | 25° |
| 2026-05-04 19:18 | 55.74281 | 13.03814 | 3483 ft | 204 kts | 15° |
| 2026-05-04 19:19 | 55.75608 | 13.03753 | 3196 ft | 188 kts | 329° |
| 2026-05-04 19:19 | 55.76593 | 13.02303 | 3075 ft | 186 kts | 315° |
| 2026-05-04 19:19 | 55.77534 | 13.00743 | 2986 ft | 181 kts | 315° |
| 2026-05-04 19:19 | 55.78434 | 12.99263 | 2968 ft | 173 kts | 315° |
| 2026-05-04 19:20 | 55.79208 | 12.97646 | 2953 ft | 174 kts | 288° |
| 2026-05-04 19:20 | 55.79152 | 12.95514 | 3006 ft | 179 kts | 255° |
| 2026-05-04 19:20 | 55.78778 | 12.93409 | 2985 ft | 178 kts | 254° |
| 2026-05-04 19:20 | 55.78129 | 12.91563 | 2987 ft | 178 kts | 229° |
| 2026-05-04 19:21 | 55.77292 | 12.89958 | 2983 ft | 177 kts | 231° |
| 2026-05-04 19:21 | 55.76441 | 12.88385 | 2986 ft | 178 kts | 227° |
| 2026-05-04 19:21 | 55.75532 | 12.86883 | 2984 ft | 179 kts | 225° |
| 2026-05-04 19:21 | 55.74581 | 12.85384 | 3006 ft | 187 kts | 225° |
| 2026-05-04 19:22 | 55.73611 | 12.83881 | 2927 ft | 187 kts | 224° |
| 2026-05-04 19:22 | 55.72624 | 12.82359 | 2702 ft | 185 kts | 225° |
| 2026-05-04 19:22 | 55.71674 | 12.80891 | 2463 ft | 183 kts | 224° |
| 2026-05-04 19:22 | 55.70714 | 12.79408 | 2222 ft | 183 kts | 225° |
| 2026-05-04 19:23 | 55.69755 | 12.77922 | 1963 ft | 183 kts | 225° |
| 2026-05-04 19:23 | 55.68798 | 12.76444 | 1720 ft | 181 kts | 225° |
| 2026-05-04 19:23 | 55.67849 | 12.74976 | 1471 ft | 180 kts | 225° |
| 2026-05-04 19:23 | 55.66909 | 12.73538 | 1155 ft | 177 kts | 224° |
| 2026-05-04 19:24 | 55.65993 | 12.72215 | 941 ft | 159 kts | 223° |
| 2026-05-04 19:24 | 55.65205 | 12.70952 | 614 ft | 151 kts | 228° |
| 2026-05-04 19:24 | 55.64453 | 12.69642 | 481 ft | 147 kts | 224° |
| 2026-05-04 19:24 | 55.63652 | 12.68485 | 369 ft | 154 kts | 223° |
| 2026-05-04 19:25 | 55.62820 | 12.67187 | 157 ft | 162 kts | 225° |
| 2026-05-04 19:25 | 55.62020 | 12.65937 | 23 ft | 139 kts | 222° |
| 2026-05-04 19:25 | 55.61478 | 12.65104 | 22 ft | 57 kts | 220° |
| 2026-05-04 19:25 | 55.61287 | 12.64731 | 24 ft | 39 kts | 238° |
| 2026-05-04 19:26 | 55.61214 | 12.64393 | 23 ft | 13 kts | 251° |
| 2026-05-04 19:26 | 55.61191 | 12.64271 | 25 ft | 7 kts | 256° |
| 2026-05-04 19:26 | 55.61189 | 12.64197 | 23 ft | 6 kts | 279° |
| 2026-05-04 19:26 | 55.61222 | 12.64124 | 23 ft | 10 kts | 331° |
| 2026-05-04 19:27 | 55.61303 | 12.64143 | 24 ft | 15 kts | 30° |
| 2026-05-04 19:27 | 55.61395 | 12.64243 | 23 ft | 16 kts | 34° |
| 2026-05-04 19:27 | 55.61483 | 12.64343 | 23 ft | 14 kts | 32° |
| 2026-05-04 19:27 | 55.61561 | 12.64431 | 23 ft | 13 kts | 34° |
| 2026-05-04 19:28 | 55.61631 | 12.64514 | 24 ft | 12 kts | 33° |
| 2026-05-04 19:28 | 55.61718 | 12.64558 | 23 ft | 15 kts | 359° |
| 2026-05-04 19:28 | 55.61818 | 12.64535 | 23 ft | 14 kts | 351° |
| 2026-05-04 19:28 | 55.61846 | 12.64527 | 23 ft | 0 kts | 351° |
| 2026-05-04 19:29 | 55.61858 | 12.64523 | 23 ft | 5 kts | 348° |
| 2026-05-04 19:29 | 55.61945 | 12.64491 | 25 ft | 15 kts | 349° |
| 2026-05-04 19:30 | 55.62045 | 12.64458 | 23 ft | 14 kts | 349° |
| 2026-05-04 19:30 | 55.62101 | 12.64442 | 25 ft | 0 kts | 352° |
| 2026-05-04 19:31 | 55.62127 | 12.64433 | 22 ft | 9 kts | 349° |
| 2026-05-04 19:31 | 55.62237 | 12.64376 | 21 ft | 21 kts | 317° |
| 2026-05-04 19:31 | 55.62326 | 12.64172 | 20 ft | 21 kts | 304° |
| 2026-05-04 19:31 | 55.62398 | 12.63963 | 21 ft | 20 kts | 301° |
| 2026-05-04 19:32 | 55.62477 | 12.63748 | 22 ft | 22 kts | 303° |
| 2026-05-04 19:32 | 55.62567 | 12.63528 | 21 ft | 19 kts | 319° |
| 2026-05-04 19:32 | 55.62632 | 12.63506 | 22 ft | 0 kts | 7° |
| 2026-05-04 19:33 | 55.62633 | 12.63506 | 22 ft | 1 kts | 6° |
| 2026-05-04 19:34 | 55.62667 | 12.63475 | 22 ft | 10 kts | 316° |
| 2026-05-04 19:34 | 55.62717 | 12.63357 | 22 ft | 12 kts | 304° |
| 2026-05-04 19:34 | 55.62788 | 12.63337 | 22 ft | 12 kts | 33° |
| 2026-05-04 19:34 | 55.62848 | 12.63419 | 23 ft | 10 kts | 53° |
| 2026-05-04 19:35 | 55.62857 | 12.63512 | 23 ft | 5 kts | 87° |
| 2026-05-04 19:35 | 55.62870 | 12.63562 | 24 ft | 4 kts | 49° |
| 2026-05-04 19:35 | 55.62889 | 12.63597 | 23 ft | 4 kts | 44° |
| 2026-05-04 19:35 | 55.62903 | 12.63619 | 23 ft | 1 kts | 42° |
| 2026-05-04 19:36 | 55.62905 | 12.63623 | 23 ft | 0 kts | 42° |